Time;durP1;ratioP1;P1;durP2;ratioP2;P2;SDS_P1;SDS_P2;PMS_P1;PMS_P2;Temp;Humidity;BMP_temperature;BMP_pressure;BME280_temperature;BME280_humidity;BME280_pressure;Samples;Min_cycle;Max_cycle;Signal;HPM_P1;HPM_P2
2024/01/09 00:00:55;;;;;;;9.50;3.28;;;-2.40;99.90;;;;;;5071895;28;20056;-70
2024/01/09 00:03:21;;;;;;;6.35;3.30;;;-2.40;99.90;;;;;;5071397;28;20140;-70
2024/01/09 00:05:46;;;;;;;7.57;3.28;;;-2.40;99.90;;;;;;5072398;28;20036;-70
2024/01/09 00:08:12;;;;;;;7.93;3.55;;;-2.40;99.90;;;;;;5071380;28;20468;-70
2024/01/09 00:10:38;;;;;;;8.63;3.50;;;-2.40;99.90;;;;;;5072827;28;20094;-70
2024/01/09 00:13:04;;;;;;;6.50;2.80;;;-2.40;99.90;;;;;;5071811;28;20072;-70
2024/01/09 00:15:30;;;;;;;5.90;3.45;;;-2.50;99.90;;;;;;5072139;28;20044;-71
2024/01/09 00:17:57;;;;;;;6.15;3.50;;;-2.50;99.90;;;;;;5072382;28;20045;-71
2024/01/09 00:20:22;;;;;;;5.70;2.65;;;-2.50;99.90;;;;;;5072386;28;20132;-70
2024/01/09 00:22:48;;;;;;;6.05;3.38;;;-2.50;99.90;;;;;;5072594;28;20478;-70
2024/01/09 00:25:16;;;;;;;6.85;2.80;;;-2.60;99.90;;;;;;5070968;28;20522;-70
2024/01/09 00:27:43;;;;;;;5.55;2.97;;;-2.60;99.90;;;;;;5071664;28;20056;-70
2024/01/09 00:30:09;;;;;;;5.50;2.95;;;-2.60;99.90;;;;;;5070739;28;20055;-70
2024/01/09 00:32:34;;;;;;;7.15;3.10;;;-2.60;99.90;;;;;;5072551;28;20545;-70
2024/01/09 00:35:01;;;;;;;7.40;3.28;;;-2.60;99.90;;;;;;5071735;28;20048;-70
2024/01/09 00:37:26;;;;;;;8.15;3.35;;;-2.60;99.90;;;;;;5070774;28;20052;-70
2024/01/09 00:39:52;;;;;;;5.53;2.95;;;-2.70;99.90;;;;;;5073060;28;20045;-70
2024/01/09 00:42:17;;;;;;;6.05;3.33;;;-2.70;99.90;;;;;;5072368;28;20162;-70
2024/01/09 00:44:44;;;;;;;6.88;3.40;;;-2.70;99.90;;;;;;5070789;28;20048;-70
2024/01/09 00:47:10;;;;;;;5.25;2.95;;;-2.70;99.90;;;;;;5071658;28;20045;-70
2024/01/09 00:49:35;;;;;;;5.75;3.03;;;-2.70;99.90;;;;;;5071000;28;20067;-70
2024/01/09 00:52:02;;;;;;;8.07;3.28;;;-2.80;99.90;;;;;;5069995;28;20049;-70
2024/01/09 00:54:28;;;;;;;8.30;3.78;;;-2.80;99.90;;;;;;5071314;28;20115;-70
2024/01/09 00:56:53;;;;;;;7.10;3.00;;;-2.80;99.90;;;;;;5071014;28;20137;-70
2024/01/09 00:59:19;;;;;;;6.90;2.97;;;-2.80;99.90;;;;;;5071096;28;20048;-70
2024/01/09 01:01:49;;;;;;;6.30;3.35;;;-2.80;99.90;;;;;;5071243;28;20090;-70
2024/01/09 01:04:16;;;;;;;7.47;3.85;;;-2.90;99.90;;;;;;5070750;28;20388;-70
2024/01/09 01:06:42;;;;;;;7.95;3.10;;;-2.90;99.90;;;;;;5070033;28;20053;-70
2024/01/09 01:09:08;;;;;;;6.35;3.08;;;-2.90;99.90;;;;;;5070815;28;20059;-70
2024/01/09 01:11:34;;;;;;;6.28;3.25;;;-2.90;99.90;;;;;;5071261;28;20044;-70
2024/01/09 01:13:59;;;;;;;6.72;3.15;;;-2.90;99.90;;;;;;5071437;28;20123;-70
2024/01/09 01:16:25;;;;;;;6.70;3.20;;;-3.00;99.90;;;;;;5072271;28;20465;-71
2024/01/09 01:18:50;;;;;;;6.50;2.80;;;-3.00;99.90;;;;;;5070867;28;20036;-70
2024/01/09 01:21:16;;;;;;;7.88;3.13;;;-3.00;99.90;;;;;;5071185;28;20044;-70
2024/01/09 01:23:42;;;;;;;7.22;3.03;;;-3.00;99.90;;;;;;5072219;28;20443;-70
2024/01/09 01:26:07;;;;;;;6.13;3.10;;;-3.00;99.90;;;;;;5071516;28;20040;-70
2024/01/09 01:28:33;;;;;;;7.10;3.42;;;-3.00;99.90;;;;;;5070360;28;20052;-70
2024/01/09 01:30:59;;;;;;;5.93;3.05;;;-3.00;99.90;;;;;;5072090;28;20040;-71
2024/01/09 01:33:25;;;;;;;6.55;2.75;;;-3.00;99.90;;;;;;5071777;28;20086;-70
2024/01/09 01:35:50;;;;;;;4.85;3.05;;;-3.00;99.90;;;;;;5074661;28;20056;-71
2024/01/09 01:38:16;;;;;;;6.05;3.00;;;-3.00;99.90;;;;;;5076146;28;20128;-70
2024/01/09 01:40:42;;;;;;;8.00;3.10;;;-3.00;99.90;;;;;;5075246;28;20048;-70
2024/01/09 01:43:07;;;;;;;6.47;3.00;;;-3.00;99.90;;;;;;5075227;28;20051;-70
2024/01/09 01:45:33;;;;;;;5.78;3.10;;;-3.10;99.90;;;;;;5076445;28;20090;-70
2024/01/09 01:48:01;;;;;;;6.20;2.70;;;-3.00;99.90;;;;;;5073552;28;20098;-70
2024/01/09 01:50:28;;;;;;;6.45;2.67;;;-3.10;99.90;;;;;;5076102;28;20049;-70
2024/01/09 01:52:54;;;;;;;5.63;3.17;;;-3.10;99.90;;;;;;5076346;28;20052;-70
2024/01/09 01:55:24;;;;;;;7.70;3.05;;;-3.00;99.90;;;;;;5074402;28;20387;-70
2024/01/09 01:57:54;;;;;;;5.35;3.00;;;-3.00;99.90;;;;;;5076229;28;20452;-70
2024/01/09 02:00:21;;;;;;;8.70;2.95;;;-3.10;99.90;;;;;;5075544;28;20121;-70
2024/01/09 02:02:50;;;;;;;5.80;3.05;;;-3.10;99.90;;;;;;5073815;28;20079;-70
2024/01/09 02:05:22;;;;;;;6.05;3.03;;;-3.10;99.90;;;;;;5073951;28;20048;-70
2024/01/09 02:07:50;;;;;;;6.50;3.10;;;-3.10;99.90;;;;;;5075896;28;20068;-70
2024/01/09 02:10:16;;;;;;;6.10;3.03;;;-3.20;99.90;;;;;;5074790;28;20457;-70
2024/01/09 02:12:42;;;;;;;10.48;3.28;;;-3.20;99.90;;;;;;5074537;28;20368;-70
2024/01/09 02:15:09;;;;;;;6.45;3.13;;;-3.20;99.90;;;;;;5073635;28;20048;-71
2024/01/09 02:17:35;;;;;;;5.90;3.15;;;-3.20;99.90;;;;;;5073601;28;20052;-70
2024/01/09 02:20:01;;;;;;;6.53;3.42;;;-3.20;99.90;;;;;;5108080;28;20040;-70
2024/01/09 02:22:26;;;;;;;7.13;3.33;;;-3.30;99.90;;;;;;5075672;28;20434;-70
2024/01/09 02:24:52;;;;;;;4.88;2.67;;;-3.20;99.90;;;;;;5073115;28;20041;-70
2024/01/09 02:27:32;;;;;;;7.32;2.80;;;-3.30;99.90;;;;;;5074748;28;20048;-70
2024/01/09 02:29:58;;;;;;;8.13;3.38;;;-3.20;99.90;;;;;;5074699;28;20053;-70
2024/01/09 02:32:24;;;;;;;7.63;3.08;;;-3.30;99.90;;;;;;5107956;28;20079;-70
2024/01/09 02:34:52;;;;;;;6.30;3.10;;;-3.30;99.90;;;;;;5073535;28;20053;-70
2024/01/09 02:37:20;;;;;;;7.05;2.85;;;-3.30;99.90;;;;;;5073908;28;20492;-70
2024/01/09 02:39:46;;;;;;;7.03;3.30;;;-3.30;99.90;;;;;;5073555;28;20404;-70
2024/01/09 02:42:13;;;;;;;5.57;3.05;;;-3.30;99.90;;;;;;5074991;28;20048;-71
2024/01/09 02:44:38;;;;;;;8.52;3.25;;;-3.30;99.90;;;;;;5073947;28;20055;-70
2024/01/09 02:47:04;;;;;;;6.72;3.25;;;-3.30;99.90;;;;;;5074560;28;20041;-70
2024/01/09 02:49:29;;;;;;;6.30;2.88;;;-3.30;99.90;;;;;;5073327;28;20048;-70
2024/01/09 02:51:56;;;;;;;6.03;3.40;;;-3.30;99.90;;;;;;5074659;28;20123;-70
2024/01/09 02:54:21;;;;;;;6.38;3.35;;;-3.40;99.90;;;;;;5074487;28;20055;-70
2024/01/09 02:56:47;;;;;;;6.32;2.90;;;-3.30;99.90;;;;;;5074338;28;20036;-70
2024/01/09 02:59:13;;;;;;;8.50;3.60;;;-3.40;99.90;;;;;;5073738;28;20067;-70
2024/01/09 03:01:39;;;;;;;7.80;3.40;;;-3.40;99.90;;;;;;5074837;28;20407;-70
2024/01/09 03:04:04;;;;;;;6.85;2.90;;;-3.30;99.90;;;;;;5074474;28;20037;-70
2024/01/09 03:06:30;;;;;;;6.50;3.35;;;-3.30;99.90;;;;;;5074029;28;20403;-70
2024/01/09 03:08:55;;;;;;;6.13;3.17;;;-3.40;99.90;;;;;;5075009;28;20472;-70
2024/01/09 03:11:21;;;;;;;5.65;2.92;;;-3.40;99.90;;;;;;5072946;28;20036;-70
2024/01/09 03:13:46;;;;;;;8.38;2.97;;;-3.40;99.90;;;;;;5073644;28;20442;-70
2024/01/09 03:16:13;;;;;;;5.63;3.40;;;-3.40;99.90;;;;;;5074316;28;20040;-70
2024/01/09 03:18:40;;;;;;;5.95;3.33;;;-3.40;99.90;;;;;;5073484;28;20094;-70
2024/01/09 03:21:06;;;;;;;7.18;3.30;;;-3.40;99.90;;;;;;5072152;28;20060;-70
2024/01/09 03:23:32;;;;;;;7.85;3.38;;;-3.40;99.90;;;;;;5073964;28;20045;-70
2024/01/09 03:25:58;;;;;;;6.78;3.08;;;-3.40;99.90;;;;;;5073630;28;20476;-70
2024/01/09 03:28:24;;;;;;;6.88;3.30;;;-3.40;99.90;;;;;;5072957;28;20059;-70
2024/01/09 03:30:50;;;;;;;5.90;3.00;;;-3.40;99.90;;;;;;5074181;28;20491;-70
2024/01/09 03:33:16;;;;;;;6.68;2.72;;;-3.60;99.90;;;;;;5073018;28;20131;-70
2024/01/09 03:35:41;;;;;;;8.65;3.05;;;-3.40;99.90;;;;;;5073965;28;20044;-70
2024/01/09 03:38:07;;;;;;;5.68;2.75;;;-3.40;99.90;;;;;;5106670;28;20045;-70
2024/01/09 03:40:35;;;;;;;6.05;3.20;;;-3.40;99.90;;;;;;5073386;28;20051;-70
2024/01/09 03:43:01;;;;;;;8.70;3.40;;;-3.40;99.90;;;;;;5072263;28;20434;-70
2024/01/09 03:45:26;;;;;;;6.53;3.10;;;-3.50;99.90;;;;;;5073845;28;20040;-70
2024/01/09 03:47:52;;;;;;;5.70;3.40;;;-3.40;99.90;;;;;;5072109;28;20484;-70
2024/01/09 03:50:18;;;;;;;6.70;3.20;;;-3.40;99.90;;;;;;5073366;28;20362;-70
2024/01/09 03:52:43;;;;;;;7.75;2.80;;;-3.40;99.90;;;;;;5073694;28;20411;-69
2024/01/09 03:55:09;;;;;;;5.68;3.10;;;-3.40;99.90;;;;;;5072174;28;20051;-70
2024/01/09 03:57:35;;;;;;;6.82;2.90;;;-3.40;99.90;;;;;;5070979;28;20041;-70
2024/01/09 04:00:00;;;;;;;6.57;3.17;;;-3.40;99.90;;;;;;5073157;28;20079;-70
2024/01/09 04:02:26;;;;;;;7.28;3.03;;;-3.40;99.90;;;;;;5071423;28;20052;-70
2024/01/09 04:04:52;;;;;;;7.07;3.00;;;-3.40;99.90;;;;;;5073666;28;20086;-71
2024/01/09 04:07:17;;;;;;;5.78;2.88;;;-3.40;99.90;;;;;;5071484;28;20228;-70
2024/01/09 04:09:43;;;;;;;7.03;3.05;;;-3.40;99.90;;;;;;5072833;28;20387;-71
2024/01/09 04:12:09;;;;;;;5.15;2.72;;;-3.40;99.90;;;;;;5072804;28;20048;-70
2024/01/09 04:14:34;;;;;;;6.30;2.80;;;-3.40;99.90;;;;;;5072046;28;20037;-70
2024/01/09 04:17:00;;;;;;;5.38;3.05;;;-3.40;99.90;;;;;;5072078;28;20040;-70
2024/01/09 04:19:25;;;;;;;5.68;2.97;;;-3.40;99.90;;;;;;5073618;28;20040;-70
2024/01/09 04:21:51;;;;;;;4.93;3.03;;;-3.40;99.90;;;;;;5071535;28;20399;-70
2024/01/09 04:24:16;;;;;;;5.55;2.78;;;-3.40;99.90;;;;;;5071943;28;20094;-70
2024/01/09 04:26:42;;;;;;;6.85;2.95;;;-3.40;99.90;;;;;;5072791;28;20391;-70
2024/01/09 04:29:08;;;;;;;5.78;2.80;;;-3.40;99.90;;;;;;5072942;28;20051;-70
2024/01/09 04:31:33;;;;;;;4.32;2.80;;;-3.40;99.90;;;;;;5072153;28;20101;-70
2024/01/09 04:33:59;;;;;;;5.72;2.88;;;-3.40;99.90;;;;;;5072701;28;20041;-70
2024/01/09 04:36:24;;;;;;;5.10;2.50;;;-3.50;99.90;;;;;;5071989;28;20071;-71
2024/01/09 04:38:50;;;;;;;5.90;3.20;;;-3.50;99.90;;;;;;5072965;28;20032;-70
2024/01/09 04:41:17;;;;;;;6.63;2.95;;;-3.50;99.90;;;;;;5072388;28;20495;-70
2024/01/09 04:43:47;;;;;;;6.10;2.92;;;-3.40;99.90;;;;;;5071312;28;20048;-71
2024/01/09 04:46:13;;;;;;;7.03;3.38;;;-3.40;99.90;;;;;;5071004;28;20471;-70
2024/01/09 04:48:39;;;;;;;5.70;2.78;;;-3.40;99.90;;;;;;5072829;28;20049;-71
2024/01/09 04:51:05;;;;;;;5.53;2.80;;;-3.40;99.90;;;;;;5069580;28;20060;-70
2024/01/09 04:53:34;;;;;;;9.60;3.15;;;-3.50;99.90;;;;;;5071683;28;20036;-70
2024/01/09 04:56:00;;;;;;;7.35;3.00;;;-3.40;99.90;;;;;;5103842;28;20069;-71
2024/01/09 04:58:26;;;;;;;5.90;2.85;;;-3.40;99.90;;;;;;5071016;28;20056;-71
2024/01/09 05:00:51;;;;;;;6.30;3.13;;;-3.40;99.90;;;;;;5071405;28;20041;-70
2024/01/09 05:03:17;;;;;;;6.05;2.90;;;-3.40;99.90;;;;;;5072097;28;20127;-71
2024/01/09 05:05:43;;;;;;;5.47;2.75;;;-3.40;99.90;;;;;;5070547;28;20452;-70
2024/01/09 05:08:08;;;;;;;6.85;3.00;;;-3.40;99.90;;;;;;5072355;28;20048;-71
2024/01/09 05:10:34;;;;;;;5.68;3.15;;;-3.30;99.90;;;;;;5072781;28;20411;-71
2024/01/09 05:12:59;;;;;;;5.90;2.67;;;-3.40;99.90;;;;;;5070262;28;20108;-70
2024/01/09 05:15:25;;;;;;;6.45;2.70;;;-3.40;99.90;;;;;;5072455;28;20484;-70
2024/01/09 05:17:50;;;;;;;5.78;2.90;;;-3.40;99.90;;;;;;5070722;28;20044;-70
2024/01/09 05:20:16;;;;;;;6.38;2.92;;;-3.40;99.90;;;;;;5071168;28;20051;-71
2024/01/09 05:22:42;;;;;;;5.28;3.17;;;-3.40;99.90;;;;;;5070904;28;20427;-70
2024/01/09 05:25:08;;;;;;;5.40;2.90;;;-3.50;99.90;;;;;;5071017;28;20369;-70
2024/01/09 05:27:34;;;;;;;6.80;3.47;;;-3.50;99.90;;;;;;5071273;28;20511;-70
2024/01/09 05:30:00;;;;;;;4.90;2.88;;;-3.40;99.90;;;;;;5072027;28;20059;-71
2024/01/09 05:32:25;;;;;;;5.38;2.67;;;-3.50;99.90;;;;;;5071256;28;20491;-71
2024/01/09 05:34:52;;;;;;;6.72;3.08;;;-3.50;99.90;;;;;;5071790;28;20064;-70
2024/01/09 05:37:17;;;;;;;4.82;2.83;;;-3.50;99.90;;;;;;5071112;28;20044;-70
2024/01/09 05:39:46;;;;;;;7.00;3.80;;;-3.50;99.90;;;;;;5071255;28;20046;-71
2024/01/09 05:42:12;;;;;;;7.07;3.55;;;-3.50;99.90;;;;;;5069960;28;20055;-71
2024/01/09 05:44:38;;;;;;;6.63;2.58;;;-3.60;99.90;;;;;;5071275;28;20098;-71
2024/01/09 05:47:04;;;;;;;6.53;3.22;;;-3.60;99.90;;;;;;5068529;28;20048;-71
2024/01/09 05:49:32;;;;;;;7.32;3.50;;;-3.60;99.90;;;;;;5071487;28;20098;-71
2024/01/09 05:51:58;;;;;;;7.32;3.20;;;-3.60;99.90;;;;;;5070162;28;20279;-72
2024/01/09 05:54:24;;;;;;;6.60;3.47;;;-3.60;99.90;;;;;;5070928;28;20052;-71
2024/01/09 05:56:49;;;;;;;7.35;3.88;;;-3.60;99.90;;;;;;5069927;28;20048;-72
2024/01/09 05:59:15;;;;;;;6.60;3.20;;;-3.60;99.90;;;;;;5070120;28;20052;-71
2024/01/09 06:01:41;;;;;;;6.20;3.08;;;-3.60;99.90;;;;;;5071078;28;20047;-71
2024/01/09 06:04:06;;;;;;;7.32;3.72;;;-3.60;99.90;;;;;;5071479;28;20178;-74
2024/01/09 06:06:32;;;;;;;6.97;2.92;;;-5.40;99.90;;;;;;5069626;28;20044;-74
2024/01/09 06:08:58;;;;;;;6.65;3.25;;;-3.70;99.90;;;;;;5069659;28;20464;-74
2024/01/09 06:11:23;;;;;;;10.10;3.45;;;-3.70;99.90;;;;;;5070334;28;20049;-73
2024/01/09 06:13:49;;;;;;;8.35;3.30;;;-3.70;99.90;;;;;;5070023;28;20041;-73
2024/01/09 06:16:15;;;;;;;6.38;3.20;;;-3.70;99.90;;;;;;5069565;28;20140;-72
2024/01/09 06:18:40;;;;;;;6.90;3.20;;;-3.80;99.90;;;;;;5071631;28;20488;-77
2024/01/09 06:21:06;;;;;;;6.43;3.45;;;-3.80;99.90;;;;;;5071091;28;20098;-75
2024/01/09 06:23:31;;;;;;;7.05;3.45;;;-3.80;99.90;;;;;;5073588;28;20052;-73
2024/01/09 06:25:57;;;;;;;6.65;3.45;;;-3.80;99.90;;;;;;5073373;28;20102;-73
2024/01/09 06:28:23;;;;;;;6.18;3.40;;;-3.80;99.90;;;;;;5073804;28;20478;-73
2024/01/09 06:30:49;;;;;;;7.05;3.60;;;-3.80;99.90;;;;;;5074475;28;20045;-81
2024/01/09 06:33:18;;;;;;;7.20;2.97;;;-3.80;99.90;;;;;;5073502;28;20025;-73
2024/01/09 06:35:43;;;;;;;7.18;3.28;;;-3.80;99.90;;;;;;5072120;28;20047;-71
2024/01/09 06:38:09;;;;;;;7.13;3.00;;;-3.80;99.90;;;;;;5072983;28;20036;-73
2024/01/09 06:40:35;;;;;;;6.53;3.38;;;-3.80;99.90;;;;;;5073331;28;20195;-73
2024/01/09 06:43:00;;;;;;;7.95;3.85;;;-3.80;99.90;;;;;;5072371;28;21006;-74
2024/01/09 06:45:26;;;;;;;7.13;3.15;;;-3.90;99.90;;;;;;5073137;28;20041;-74
2024/01/09 06:47:54;;;;;;;5.78;3.50;;;-3.90;99.90;;;;;;5070207;28;20404;-72
2024/01/09 06:50:20;;;;;;;7.28;3.70;;;-3.90;99.90;;;;;;5074353;28;20052;-73
2024/01/09 06:52:45;;;;;;;6.32;3.50;;;-3.90;99.90;;;;;;5074125;28;20044;-73
2024/01/09 06:55:11;;;;;;;6.55;3.60;;;-4.00;99.90;;;;;;5072610;28;20056;-73
2024/01/09 06:57:37;;;;;;;7.65;3.75;;;-4.00;99.90;;;;;;5072614;28;20048;-74
2024/01/09 07:00:04;;;;;;;9.00;4.35;;;-4.00;99.90;;;;;;5073101;28;20036;-73
2024/01/09 07:02:29;;;;;;;6.75;3.75;;;-4.00;99.90;;;;;;5072985;28;20089;-73
2024/01/09 07:04:55;;;;;;;6.00;3.30;;;-4.00;99.90;;;;;;5073335;28;20399;-73
2024/01/09 07:07:20;;;;;;;6.78;3.38;;;-4.00;99.90;;;;;;5072465;28;20123;-73
2024/01/09 07:09:46;;;;;;;6.05;3.60;;;-4.00;99.90;;;;;;5071614;28;20186;-73
2024/01/09 07:12:13;;;;;;;8.25;4.68;;;-4.00;99.90;;;;;;5070586;28;20048;-73
2024/01/09 07:14:38;;;;;;;9.55;4.35;;;-4.10;99.90;;;;;;5072920;28;20052;-73
2024/01/09 07:17:04;;;;;;;10.15;4.13;;;-4.00;99.90;;;;;;5071739;28;20043;-73
2024/01/09 07:19:30;;;;;;;7.80;4.07;;;-4.00;99.90;;;;;;5069404;28;20063;-73
2024/01/09 07:21:57;;;;;;;7.88;3.72;;;-4.00;99.90;;;;;;5073656;28;20040;-73
2024/01/09 07:24:22;;;;;;;7.00;4.40;;;-4.00;99.90;;;;;;5073749;28;20040;-74
2024/01/09 07:26:48;;;;;;;7.50;3.95;;;-4.10;99.90;;;;;;5073344;28;20055;-72
2024/01/09 07:29:16;;;;;;;8.07;4.07;;;-4.10;99.90;;;;;;5066239;28;20040;-74
2024/01/09 07:31:43;;;;;;;6.97;3.10;;;-4.10;99.90;;;;;;5070330;28;20045;-72
2024/01/09 07:34:08;;;;;;;6.13;3.92;;;-4.10;99.90;;;;;;5070196;28;20443;-71
2024/01/09 07:36:34;;;;;;;6.88;3.60;;;-4.10;99.90;;;;;;5072099;28;20044;-76
2024/01/09 07:39:00;;;;;;;8.30;3.85;;;-4.10;99.90;;;;;;5071843;28;20048;-71
2024/01/09 07:41:25;;;;;;;6.75;3.35;;;-4.10;99.90;;;;;;5071365;28;20040;-71
2024/01/09 07:43:51;;;;;;;8.52;3.92;;;-4.10;99.90;;;;;;5073778;28;20049;-73
2024/01/09 07:46:17;;;;;;;9.32;4.40;;;-4.20;99.90;;;;;;5070946;28;20055;-75
2024/01/09 07:48:43;;;;;;;6.68;3.78;;;-4.10;99.90;;;;;;5072098;28;20051;-72
2024/01/09 07:51:09;;;;;;;7.43;4.00;;;-4.10;99.90;;;;;;5072758;28;20503;-74
2024/01/09 07:53:35;;;;;;;7.43;4.32;;;-4.10;99.90;;;;;;5071357;28;20049;-73
2024/01/09 07:56:00;;;;;;;8.93;5.28;;;-4.10;99.90;;;;;;5072461;28;20476;-72
2024/01/09 07:58:26;;;;;;;10.00;5.90;;;-4.10;99.90;;;;;;5073213;28;20178;-71
2024/01/09 08:00:53;;;;;;;8.75;4.13;;;-4.10;99.90;;;;;;5072270;28;22347;-72
2024/01/09 08:03:22;;;;;;;7.53;3.70;;;-4.10;99.90;;;;;;5071552;28;20380;-71
2024/01/09 08:05:47;;;;;;;6.78;3.42;;;-5.30;99.90;;;;;;5071071;28;20051;-69
2024/01/09 08:08:13;;;;;;;8.05;4.10;;;-4.10;99.90;;;;;;5072094;28;20476;-72
2024/01/09 08:10:38;;;;;;;8.65;3.70;;;-4.10;99.90;;;;;;5073517;28;20055;-72
2024/01/09 08:13:04;;;;;;;6.55;3.60;;;-4.10;99.90;;;;;;5072562;28;20083;-72
2024/01/09 08:15:30;;;;;;;6.88;3.70;;;-4.10;99.90;;;;;;5070161;28;20053;-73
2024/01/09 08:17:55;;;;;;;8.88;4.10;;;-4.10;99.90;;;;;;5061990;28;20041;-74
2024/01/09 08:20:21;;;;;;;7.10;4.10;;;-4.10;99.90;;;;;;5062952;28;20178;-73
2024/01/09 08:22:48;;;;;;;6.03;3.58;;;-4.20;99.90;;;;;;5071968;28;20055;-79
2024/01/09 08:25:13;;;;;;;9.82;4.35;;;-4.10;99.90;;;;;;5070746;28;20129;-74
2024/01/09 08:27:39;;;;;;;6.85;3.67;;;-4.20;99.90;;;;;;5071065;28;20099;-71
2024/01/09 08:30:10;;;;;;;7.60;4.00;;;-4.10;99.90;;;;;;5069854;28;20121;-71
2024/01/09 08:32:37;;;;;;;6.00;3.30;;;-4.10;99.90;;;;;;5069944;28;20051;-72
2024/01/09 08:35:03;;;;;;;8.48;4.10;;;-4.10;99.90;;;;;;5070747;28;20048;-72
2024/01/09 08:37:29;;;;;;;7.28;4.28;;;-4.10;99.90;;;;;;5103502;28;20048;-71
2024/01/09 08:39:54;;;;;;;6.75;3.70;;;-4.10;99.90;;;;;;5069934;28;20487;-71
2024/01/09 08:42:20;;;;;;;7.32;4.43;;;-3.90;99.90;;;;;;5070972;28;20084;-72
2024/01/09 08:44:45;;;;;;;6.13;3.35;;;-3.30;99.90;;;;;;5071603;28;20392;-72
2024/01/09 08:47:12;;;;;;;6.05;3.70;;;-2.70;99.90;;;;;;5071168;28;20052;-72
2024/01/09 08:49:38;;;;;;;6.00;3.17;;;-2.10;99.90;;;;;;5070843;28;20136;-70
2024/01/09 08:52:04;;;;;;;7.38;4.25;;;-1.10;99.90;;;;;;5072572;28;20119;-70
2024/01/09 08:54:30;;;;;;;6.80;3.38;;;0.20;99.90;;;;;;5072707;28;20045;-70
2024/01/09 08:56:56;;;;;;;5.15;3.05;;;1.10;99.90;;;;;;5072071;28;20483;-70
2024/01/09 08:59:21;;;;;;;5.30;3.10;;;1.80;99.90;;;;;;5071008;28;20048;-70
2024/01/09 09:01:47;;;;;;;6.25;3.38;;;2.40;99.90;;;;;;5072084;28;20119;-70
2024/01/09 09:04:13;;;;;;;5.10;2.95;;;2.70;99.90;;;;;;5071324;28;20487;-70
2024/01/09 09:06:38;;;;;;;;;;;3.30;99.90;;;;;;5073059;28;20048;-70
2024/01/09 09:09:04;;;;;;;5.80;3.40;;;3.70;99.90;;;;;;5071072;28;19920;-71
2024/01/09 09:11:32;;;;;;;5.55;3.17;;;4.00;99.20;;;;;;5071488;28;20044;-70
2024/01/09 09:13:58;;;;;;;6.20;3.50;;;4.30;98.10;;;;;;5071882;28;20456;-70
2024/01/09 09:16:28;;;;;;;6.18;3.40;;;4.60;98.30;;;;;;5070758;28;20070;-70
2024/01/09 09:18:54;;;;;;;5.07;3.10;;;5.00;95.70;;;;;;5070400;28;20048;-70
2024/01/09 09:21:19;;;;;;;4.88;2.97;;;5.20;96.30;;;;;;5070717;28;20377;-70
2024/01/09 09:23:45;;;;;;;4.82;3.00;;;5.30;95.60;;;;;;5071501;28;20137;-70
2024/01/09 09:26:12;;;;;;;;;;;5.20;94.90;;;;;;5070901;28;20384;-70
2024/01/09 09:28:37;;;;;;;4.82;2.80;;;5.50;95.20;;;;;;5071172;28;20255;-71
2024/01/09 09:31:03;;;;;;;;;;;6.00;94.70;;;;;;5071181;28;20041;-70
2024/01/09 09:33:31;;;;;;;5.05;3.05;;;6.00;93.00;;;;;;5071203;28;19920;-71
2024/01/09 09:35:57;;;;;;;3.90;2.40;;;6.10;93.50;;;;;;5072050;28;20040;-71
2024/01/09 09:38:24;;;;;;;5.85;3.42;;;6.40;92.80;;;;;;5071896;28;20041;-72
2024/01/09 09:40:50;;;;;;;4.10;2.67;;;6.30;92.90;;;;;;5071182;28;20047;-72
2024/01/09 09:43:24;;;;;;;4.82;2.88;;;6.50;90.60;;;;;;5071882;28;20135;-71
2024/01/09 09:45:54;;;;;;;5.45;3.30;;;7.00;90.90;;;;;;5071393;28;20071;-71
2024/01/09 09:48:23;;;;;;;5.25;3.13;;;7.00;91.10;;;;;;5071456;28;20047;-72
2024/01/09 09:50:52;;;;;;;4.88;2.88;;;7.20;91.20;;;;;;5071560;28;20065;-77
2024/01/09 09:53:18;;;;;;;5.30;2.90;;;7.30;89.80;;;;;;5071188;28;20056;-74
2024/01/09 09:55:45;;;;;;;4.57;2.65;;;7.90;91.30;;;;;;5072397;28;20059;-71
2024/01/09 09:58:11;;;;;;;7.45;3.10;;;8.00;90.10;;;;;;5075502;28;20480;-71
2024/01/09 10:00:36;;;;;;;5.32;2.70;;;8.30;88.50;;;;;;5075485;28;20052;-72
2024/01/09 10:03:08;;;;;;;4.55;2.75;;;8.40;87.00;;;;;;5075787;28;20048;-75
2024/01/09 10:05:40;;;;;;;5.00;2.92;;;8.80;87.80;;;;;;5075785;28;20120;-74
2024/01/09 10:08:10;;;;;;;7.55;5.90;;;9.00;86.30;;;;;;5074651;28;20097;-73
2024/01/09 10:10:36;;;;;;;5.28;3.70;;;9.20;86.90;;;;;;5073735;28;20056;-74
2024/01/09 10:13:03;;;;;;;6.20;3.85;;;8.60;87.30;;;;;;5075378;28;20078;-73
2024/01/09 10:15:28;;;;;;;5.63;3.72;;;9.00;86.20;;;;;;5073812;28;20170;-72
2024/01/09 10:17:54;;;;;;;5.28;3.13;;;9.10;86.70;;;;;;5074072;28;20139;-73
2024/01/09 10:20:20;;;;;;;5.82;3.70;;;9.70;85.10;;;;;;5075235;28;20051;-73
2024/01/09 10:22:46;;;;;;;5.43;3.05;;;10.10;83.70;;;;;;5074914;28;20041;-71
2024/01/09 10:25:12;;;;;;;5.75;3.42;;;9.80;82.10;;;;;;5074930;28;20090;-72
2024/01/09 10:27:39;;;;;;;4.65;3.08;;;9.10;81.00;;;;;;5075484;28;20041;-72
2024/01/09 10:30:09;;;;;;;4.82;3.40;;;9.10;84.70;;;;;;5074424;28;20170;-72
2024/01/09 10:32:39;;;;;;;4.65;3.13;;;9.60;81.60;;;;;;5074129;28;20052;-72
2024/01/09 10:35:05;;;;;;;4.57;3.15;;;10.30;81.90;;;;;;5073047;28;20040;-72
2024/01/09 10:37:31;;;;;;;4.35;2.92;;;10.50;82.10;;;;;;5074969;28;20411;-72
2024/01/09 10:39:58;;;;;;;5.20;2.63;;;10.20;79.90;;;;;;5075007;28;20047;-72
2024/01/09 10:42:24;;;;;;;4.88;2.97;;;10.10;80.70;;;;;;5074371;28;20131;-72
2024/01/09 10:44:49;;;;;;;4.90;3.25;;;10.60;80.30;;;;;;5075070;28;20208;-74
2024/01/09 10:47:17;;;;;;;4.82;3.17;;;10.40;77.60;;;;;;5074652;28;20040;-74
2024/01/09 10:49:44;;;;;;;4.80;2.85;;;10.70;80.10;;;;;;5073467;28;20056;-72
2024/01/09 10:52:15;;;;;;;3.78;2.50;;;10.30;78.50;;;;;;5073762;28;20098;-71
2024/01/09 10:54:42;;;;;;;5.13;2.92;;;10.20;77.10;;;;;;5072080;28;20059;-70
2024/01/09 10:57:12;;;;;;;4.65;2.65;;;10.50;79.70;;;;;;5072482;28;20087;-71
2024/01/09 10:59:40;;;;;;;5.07;2.92;;;9.80;77.80;;;;;;5072510;28;20052;-71
2024/01/09 11:02:21;;;;;;;3.95;2.67;;;9.20;78.70;;;;;;5073329;28;20044;-73
2024/01/09 11:04:48;;;;;;;3.75;2.25;;;10.10;79.60;;;;;;5071676;28;20047;-72
2024/01/09 11:07:15;;;;;;;4.45;2.40;;;10.10;77.90;;;;;;5073159;28;20040;-73
2024/01/09 11:09:46;;;;;;;5.68;2.45;;;10.60;77.60;;;;;;5071971;28;20041;-74
2024/01/09 11:12:23;;;;;;;4.72;2.75;;;10.70;74.60;;;;;;5071480;28;20048;-74
2024/01/09 11:15:13;;;;;;;4.43;2.40;;;10.30;75.70;;;;;;5071961;28;20040;-74
2024/01/09 11:17:41;;;;;;;4.28;2.47;;;10.70;76.70;;;;;;5072033;28;20110;-74
2024/01/09 11:20:08;;;;;;;3.65;2.20;;;10.80;76.00;;;;;;5071830;28;20040;-74
2024/01/09 11:22:37;;;;;;;4.25;2.80;;;11.10;76.60;;;;;;5073061;28;20076;-74
2024/01/09 11:25:05;;;;;;;4.18;2.38;;;10.90;75.70;;;;;;5072532;28;20032;-74
2024/01/09 11:27:41;;;;;;;5.68;2.65;;;11.00;74.20;;;;;;5073344;28;20059;-74
2024/01/09 11:30:09;;;;;;;4.40;2.33;;;11.00;75.60;;;;;;5073311;28;20422;-74
2024/01/09 11:32:35;;;;;;;3.42;2.03;;;10.80;75.70;;;;;;5072016;28;20117;-74
2024/01/09 11:35:14;;;;;;;3.78;2.30;;;10.70;74.50;;;;;;5071632;28;20484;-74
2024/01/09 11:37:48;;;;;;;3.50;2.13;;;10.10;76.20;;;;;;5072595;28;20526;-76
2024/01/09 11:40:16;;;;;;;3.80;2.20;;;10.80;75.70;;;;;;5072117;28;20085;-78
2024/01/09 11:42:49;;;;;;;3.30;2.00;;;10.60;75.40;;;;;;5073124;28;20430;-77
2024/01/09 11:45:23;;;;;;;3.88;2.30;;;10.50;73.80;;;;;;5096244;28;20041;-80
2024/01/09 11:47:49;;;;;;;3.20;2.00;;;10.80;74.20;;;;;;5071455;28;20377;-77
2024/01/09 11:50:15;;;;;;;4.43;2.40;;;11.10;74.10;;;;;;5034959;28;1075080;-79
2024/01/09 11:52:42;;;;;;;4.00;2.38;;;11.10;74.00;;;;;;5073172;28;20402;-78
2024/01/09 11:55:10;;;;;;;4.38;2.70;;;11.10;75.50;;;;;;5073264;28;20536;-77
2024/01/09 11:57:37;;;;;;;3.83;2.33;;;11.40;76.00;;;;;;5073823;28;20052;-76
2024/01/09 12:00:07;;;;;;;5.07;2.60;;;11.60;74.40;;;;;;5072845;28;20029;-77
2024/01/09 12:02:36;;;;;;;4.45;2.63;;;11.50;75.60;;;;;;5052399;28;20040;-77
2024/01/09 12:05:08;;;;;;;3.63;2.30;;;11.60;75.80;;;;;;5053639;28;20033;-76
2024/01/09 12:07:36;;;;;;;4.03;2.60;;;11.00;74.10;;;;;;5052891;28;20040;-81
2024/01/09 12:10:04;;;;;;;4.95;2.65;;;10.20;74.60;;;;;;5053833;28;20048;-82
2024/01/09 12:12:30;;;;;;;4.03;2.42;;;10.30;75.60;;;;;;5073246;28;20377;-81
2024/01/09 12:14:57;;;;;;;4.57;2.83;;;10.20;75.70;;;;;;5072538;28;20055;-76
2024/01/09 12:17:33;;;;;;;5.07;3.15;;;10.00;75.80;;;;;;5071704;28;20052;-76
2024/01/09 12:20:01;;;;;;;4.65;2.88;;;9.80;77.30;;;;;;5072631;28;20051;-76
2024/01/09 12:22:27;;;;;;;5.20;3.15;;;9.70;77.70;;;;;;5072246;28;20049;-76
2024/01/09 12:24:54;;;;;;;4.38;2.42;;;9.30;77.20;;;;;;5104823;28;20071;-74
2024/01/09 12:27:23;;;;;;;4.70;2.88;;;9.80;76.30;;;;;;5072426;28;20526;-76
2024/01/09 12:29:51;;;;;;;4.18;2.40;;;9.80;77.60;;;;;;5072708;28;20052;-77
2024/01/09 12:32:18;;;;;;;5.15;2.78;;;10.70;78.00;;;;;;5072746;28;20047;-76
2024/01/09 12:34:45;;;;;;;4.40;2.58;;;10.20;74.90;;;;;;5070535;28;20471;-75
2024/01/09 12:37:11;;;;;;;4.22;2.40;;;9.50;76.50;;;;;;5104725;28;20048;-75
2024/01/09 12:39:37;;;;;;;4.20;2.30;;;8.70;76.70;;;;;;5072823;28;20535;-75
2024/01/09 12:42:06;;;;;;;4.50;2.53;;;8.90;75.70;;;;;;5072137;28;20127;-75
2024/01/09 12:44:32;;;;;;;4.40;2.25;;;9.20;75.90;;;;;;5105719;28;20495;-75